Боухантеры.ру

Информация о пользователе

Привет, Гость! Войдите или зарегистрируйтесь.


Вы здесь » Боухантеры.ру » Снаряжение боухантера


Снаряжение боухантера

Тем 91 страница 120 из 121

Тема Ответов Просмотров Последнее сообщение
91 Сброс  exc3lent
18 141 2020-01-14 08:57:49  Вован
92 Камуфляж для охоты.  StringWalker  [ 1 2 ]
34 371 2020-01-12 21:53:53  Pavel
6 76 2020-01-12 20:13:44  Тот Самый Олег
94 АТА шоу 2020  Alex Kurashev
15 140 2020-01-12 08:46:48  Черкасов
12 100 2020-01-11 08:45:15  iBolit66
96 Broadhead tuning  Тот Самый Олег
14 176 2020-01-10 00:20:07  Bows
3 29 2020-01-07 00:47:27  Pavel
6 92 2020-01-05 20:26:32  Владимир
3 74 2019-12-31 17:13:50  Юджин
100 Про АТА арбалета  Владимир
13 88 2019-12-29 10:28:55  Владимир
11 127 2019-12-28 16:13:27  Alex Kurashev
13 137 2019-12-28 06:11:28  Василий
103 Аутсерт или инсерт  Тот Самый Олег
15 132 2019-12-27 23:29:46  Bows
2 54 2019-12-27 23:26:46  Bows
1 29 2019-12-27 21:56:10  Alex Kurashev
1 52 2019-12-26 00:14:32  Тот Самый Олег
107 Тенпойнт fx4 арбалет  Тот Самый Олег
0 24 2019-12-25 18:11:59  Тот Самый Олег
108 Valkyrie наконечник валькирия  Тот Самый Олег
6 93 2019-12-25 17:04:56  Тот Самый Олег
15 134 2019-12-25 03:29:13  Тот Самый Олег
110 RMSG CUTTHROAT BROADHEAD  Тот Самый Олег
9 120 2019-12-24 23:00:04  Тот Самый Олег
111 Rage Hypodermic  Тот Самый Олег
1 35 2019-12-24 19:01:38  Foxshooter
112 German Kinetics  Тот Самый Олег
3 100 2019-12-24 16:33:33  Юджин
113 Модный вискербискет  Тот Самый Олег
2 44 2019-12-23 05:16:53  Тот Самый Олег
114 Grim Reaper  Тот Самый Олег
0 30 2019-12-23 01:42:42  Тот Самый Олег
2 29 2019-12-23 01:18:48  Alex Kurashev
116 С чем я охочусь  Тот Самый Олег
1 43 2019-12-23 01:16:28  Тот Самый Олег
117 Кифару Kifaru рюкзак  Тот Самый Олег
1 25 2019-12-22 21:42:19  Тот Самый Олег
5 84 2019-12-22 16:00:09  Sanarcher
4 84 2019-12-22 12:44:30  Sanarcher
120 IQ Pro Hunter Sight  Владимир
12 98 2019-12-22 12:22:02  Sanarcher

Вы здесь » Боухантеры.ру » Снаряжение боухантера